MDT,Max TemperatureF,Mean TemperatureF,Min TemperatureF,Max Dew PointF,MeanDew PointF,Min DewpointF,Max Humidity, Mean Humidity, Min Humidity, Max Sea Level PressureIn, Mean Sea Level PressureIn, Min Sea Level PressureIn, Max VisibilityMiles, Mean VisibilityMiles, Min VisibilityMiles, Max Wind SpeedMPH, Mean Wind SpeedMPH, Max Gust SpeedMPH,PrecipitationIn, CloudCover, Events, WindDirDegrees
2012-10-1,68,57,46,41,37,34,68,49,30,30.29,30.15,30.05,10,10,10,26,13,32,T,2,,353
2012-10-2,79,59,39,37,30,23,79,46,13,30.25,29.94,29.81,10,10,10,15,6,20,0.00,0,,140
2012-10-3,83,61,38,32,24,12,64,36,7,30.09,29.85,29.69,10,10,10,39,15,47,0.00,1,,349
2012-10-4,51,42,32,26,24,21,64,51,38,30.36,30.25,30.13,10,10,10,31,10,39,0.00,2,,165
2012-10-5,42,37,32,32,29,25,89,70,51,30.35,30.24,30.15,10,7,0,21,8,24,T,7,Rain-Snow,123
2012-10-6,42,37,31,34,28,22,100,80,59,30.38,30.27,30.19,10,5,0,25,8,30,0.02,8,Fog-Snow,117
2012-10-7,53,41,29,26,20,10,85,53,21,30.29,30.18,30.07,10,10,10,15,6,36,0.00,3,,150
2012-10-8,68,48,28,21,14,3,69,40,10,30.11,29.95,29.79,10,10,10,23,9,29,0.00,0,,69
2012-10-9,68,54,39,33,22,1,76,43,10,30.26,29.97,29.74,10,10,10,23,10,29,0.00,2,,75
2012-10-10,62,51,39,35,33,32,79,56,32,30.24,30.11,29.96,10,10,10,14,6,18,0.00,4,,163
2012-10-11,77,60,42,34,28,22,62,38,13,30.22,30.01,29.90,10,10,10,26,8,31,0.00,1,,53
2012-10-12,62,48,34,45,37,30,86,67,47,30.29,30.07,29.91,10,10,9,23,7,26,0.01,2,Rain-Thunderstorm,143
2012-10-13,58,48,38,37,29,21,71,50,28,30.07,29.89,29.81,10,10,10,36,12,43,T,3,Rain,328
2012-10-14,64,52,40,37,33,29,76,53,30,30.29,30.19,30.08,10,10,10,16,8,20,0.00,1,,79
2012-10-15,77,57,37,34,25,18,70,42,13,30.15,29.96,29.80,10,10,10,15,6,17,0.00,0,,60
2012-10-16,78,62,45,30,21,16,31,21,10,29.95,29.64,29.43,10,10,10,29,10,36,T,1,,291
2012-10-17,62,50,38,39,11,-4,66,37,7,29.95,29.75,29.56,10,10,8,35,14,48,T,0,,356
2012-10-18,58,44,30,13,11,4,41,29,17,30.17,30.07,29.95,10,10,10,16,6,18,0.00,0,,129
2012-10-19,71,51,31,20,16,13,43,28,12,30.12,29.94,29.80,10,10,10,15,7,18,0.00,0,,59
2012-10-20,79,61,43,18,11,4,31,19,6,29.84,29.69,29.58,10,10,10,26,9,32,0.00,0,,30
2012-10-21,75,59,43,31,15,7,49,29,9,29.79,29.67,29.59,10,10,10,21,9,25,0.00,0,,34
2012-10-22,70,53,36,32,30,25,70,44,18,29.86,29.78,29.69,10,10,10,29,9,35,0.00,0,,84
2012-10-23,78,60,42,31,22,17,58,34,10,29.87,29.67,29.55,10,10,10,29,13,37,0.00,1,,220
2012-10-24,59,46,32,36,31,28,85,62,38,29.94,29.74,29.60,10,10,6,39,14,51,0.04,3,Rain-Snow,5
2012-10-25,35,30,25,33,25,22,100,82,64,30.36,30.21,29.94,10,6,1,29,10,39,0.07,7,Snow,149
2012-10-26,39,32,25,27,24,19,92,72,52,30.54,30.35,30.19,10,6,0,20,10,22,T,6,Fog-Snow,145
2012-10-27,47,35,22,25,21,18,100,67,34,30.27,30.20,30.12,10,8,0,14,7,17,0.00,1,Fog,152
2012-10-28,54,39,24,25,21,17,74,52,29,30.25,30.16,30.07,10,10,10,10,5,12,0.00,0,,31
2012-10-29,66,51,35,30,23,19,59,39,18,30.20,30.12,30.03,10,10,10,13,6,14,0.00,0,,27
2012-10-30,67,53,38,26,24,22,54,38,22,30.19,30.09,30.00,10,10,10,14,6,17,0.00,0,,349
2012-10-31,71,55,38,25,21,15,54,33,12,30.15,30.09,30.03,10,10,10,15,7,17,0.00,0,,353